Time;durP1;ratioP1;P1;durP2;ratioP2;P2;SDS_P1;SDS_P2;PMS_P1;PMS_P2;Temp;Humidity;BMP_temperature;BMP_pressure;BME280_temperature;BME280_humidity;BME280_pressure;Samples;Min_cycle;Max_cycle;Signal;HPM_P1;HPM_P2
2022/01/23 00:04:14;;;;;;;;;;;1.80;99.90;;;0.86;100.00;97093.75;10514829;28;1534;-68
2022/01/23 00:09:18;;;;;;;;;;;1.90;99.90;;;0.81;100.00;97099.56;10510090;28;1778;-68
2022/01/23 00:19:42;;;;;;;;;;;1.80;99.90;;;0.90;100.00;97085.28;10505386;28;1887;-69
2022/01/23 00:30:27;;;;;;;;;;;1.90;99.90;;;1.01;100.00;97079.50;10500325;28;1973;-70
2022/01/23 00:35:30;;;;;;;;;;;1.90;99.90;;;1.03;100.00;97085.47;10496763;28;2007;-69
2022/01/23 00:40:33;;;;;;;;;;;1.90;99.90;;;1.10;100.00;97087.38;10504041;28;1957;-69
2022/01/23 00:45:43;;;;;;;;;;;2.00;99.90;;;1.10;100.00;97090.03;10506509;28;1959;-68
2022/01/23 00:50:45;;;;;;;;;;;2.10;99.90;;;1.02;100.00;97089.13;10476603;28;2020;-68
2022/01/23 00:55:48;;;;;;;;;;;2.00;99.90;;;0.97;100.00;97091.47;10470266;28;1992;-68
2022/01/23 01:00:52;;;;;;;;;;;2.00;99.90;;;0.95;100.00;97093.47;10469255;28;1973;-69
2022/01/23 01:05:55;;;;;;;;;;;2.00;99.90;;;1.00;100.00;97091.09;10470337;28;1962;-69
2022/01/23 01:11:12;;;;;;;;;;;1.90;99.90;;;0.93;100.00;97092.84;10466105;28;2172;-69
2022/01/23 01:16:38;;;;;;;;;;;2.00;99.90;;;0.98;100.00;97095.78;10473954;28;2325;-69
2022/01/23 01:32:31;;;;;;;;;;;2.00;99.90;;;1.03;100.00;97096.06;10468970;28;1956;-68
2022/01/23 01:37:34;;;;;;;;;;;2.00;99.90;;;1.00;100.00;97085.00;10469681;28;1931;-68
2022/01/23 01:42:37;;;;;;;;;;;2.00;99.90;;;1.05;100.00;97099.34;10473533;28;1943;-68
2022/01/23 01:47:40;;;;;;;;;;;1.90;99.90;;;1.05;100.00;97099.34;10466931;28;2070;-68
2022/01/23 01:52:43;;;;;;;;;;;2.00;99.90;;;1.07;100.00;97092.03;10460198;28;1943;-69
2022/01/23 01:57:52;;;;;;;;;;;2.00;99.90;;;0.99;100.00;97089.47;10470040;28;1880;-69
2022/01/23 02:03:23;;;;;;;;;;;2.00;99.90;;;1.06;100.00;97095.69;10472928;28;2367;-70
2022/01/23 02:08:28;;;;;;;;;;;2.00;99.90;;;1.00;100.00;97082.34;10487436;28;2003;-70
2022/01/23 02:13:36;;;;;;;;;;;1.90;99.90;;;1.05;100.00;97083.44;10497588;28;1950;-69
2022/01/23 02:24:36;;;;;;;;;;;2.00;99.90;;;1.00;100.00;97085.00;10496791;28;2144;-70
2022/01/23 02:51:01;;;;;;;;;;;2.20;99.90;;;1.07;100.00;97094.66;10479269;28;1946;-69
2022/01/23 02:56:06;;;;;;;;;;;2.10;99.90;;;1.14;100.00;97089.47;10483018;28;1939;-69
2022/01/23 03:01:15;;;;;;;;;;;2.10;99.90;;;1.22;100.00;97084.09;10465556;28;1979;-69
2022/01/23 03:06:34;;;;;;;;;;;2.20;99.90;;;1.20;100.00;97085.28;10472121;28;2001;-69
2022/01/23 03:12:01;;;;;;;;;;;2.20;99.90;;;1.14;100.00;97093.94;10468655;28;1978;-69
2022/01/23 03:28:06;;;;;;;;;;;2.30;99.90;;;1.16;100.00;97098.06;10470290;28;1948;-69
2022/01/23 03:33:10;;;;;;;;;;;;;;;1.19;100.00;97089.75;10467404;28;1875;-69
2022/01/23 03:38:13;;;;;;;;;;;;;;;1.23;100.00;97084.91;10428675;28;1163596;-69
2022/01/23 03:43:25;;;;;;;;;;;;;;;1.25;100.00;97093.50;10468575;28;2544;-70
2022/01/23 03:53:51;;;;;;;;;;;;;;;1.36;100.00;97085.09;10469348;28;2003;-69
2022/01/23 03:58:54;;;;;;;;;;;;;;;1.36;100.00;97090.41;10468946;28;2066;-69
2022/01/23 04:04:02;;;;;;;;;;;;;;;1.33;100.00;97106.66;10466622;28;1872;-69
2022/01/23 04:09:05;;;;;;;;;;;;;;;1.41;100.00;97103.09;10470355;28;1931;-68
2022/01/23 04:14:11;;;;;;;;;;;;;;;1.42;100.00;97099.44;10471380;28;2226;-69
2022/01/23 04:19:33;;;;;;;;;;;;;;;1.31;100.00;97106.00;10467976;28;1934;-70
2022/01/23 04:35:44;;;;;;;;;;;;;;;1.35;100.00;97094.06;10467442;28;1899;-70
2022/01/23 04:46:28;;;;;;;;;;;;;;;1.22;100.00;97099.19;10463449;28;1931;-70
2022/01/23 05:02:33;;;;;;;;;;;;;;;1.13;100.00;97132.03;10470363;28;1959;-70
2022/01/23 05:07:40;;;;;;;;;;;;;;;1.21;100.00;97121.34;10470572;28;1955;-70
2022/01/23 05:12:44;;;;;;;;;;;;;;;1.18;100.00;97109.28;10465039;28;1926;-68
2022/01/23 05:17:47;;;;;;;;;;;;;;;1.20;100.00;97098.50;10471384;28;2110;-70
2022/01/23 05:22:53;;;;;;;;;;;;;;;1.21;100.00;97106.31;10465091;28;1981;-70
2022/01/23 05:27:57;;;;;;;;;;;;;;;1.26;100.00;97093.31;10468098;28;2010;-71
2022/01/23 05:33:00;;;;;;;;;;;;;;;1.28;100.00;97083.38;10466997;28;1883;-70
2022/01/23 05:38:04;;;;;;;;;;;;;;;1.28;100.00;97093.16;10469325;28;1966;-70
2022/01/23 05:43:07;;;;;;;;;;;;;;;1.23;100.00;97111.41;10472729;28;1975;-70
2022/01/23 05:48:11;;;;;;;;;;;;;;;1.28;100.00;97117.81;10474288;28;1946;-69
2022/01/23 05:53:15;;;;;;;;;;;;;;;1.24;100.00;97124.47;10477512;28;1980;-70
2022/01/23 05:58:19;;;;;;;;;;;;;;;1.28;100.00;97123.09;10473160;28;1919;-70
2022/01/23 06:03:23;;;;;;;;;;;;;;;1.26;100.00;97121.63;10483284;28;1926;-69
2022/01/23 06:08:26;;;;;;;;;;;;;;;1.25;100.00;97130.59;10477476;28;2006;-69
2022/01/23 06:13:30;;;;;;;;;;;;;;;1.24;100.00;97132.41;10478524;28;1779;-70
2022/01/23 06:18:36;;;;;;;;;;;;;;;1.21;100.00;97134.59;10501902;28;1942;-69
2022/01/23 06:23:39;;;;;;;;;;;;;;;1.18;100.00;97142.91;10496351;28;1975;-70
2022/01/23 06:28:43;;;;;;;;;;;;;;;1.21;100.00;97139.88;10489452;28;2041;-69
2022/01/23 06:33:48;;;;;;;;;;;;;;;1.18;100.00;97140.25;10473577;28;1963;-70
2022/01/23 06:38:51;;;;;;;;;;;;;;;1.24;100.00;97140.34;10471913;28;2006;-71
2022/01/23 06:43:55;;;;;;;;;;;;;;;1.16;100.00;97144.94;10480465;28;1995;-71
2022/01/23 06:48:59;;;;;;;;;;;;;;;1.21;100.00;97145.19;10471890;28;2157;-70
2022/01/23 06:54:02;;;;;;;;;;;;;;;1.28;100.00;97143.47;10475066;28;2057;-70
2022/01/23 06:59:06;;;;;;;;;;;;;;;1.25;100.00;97146.47;10490779;28;1910;-70
2022/01/23 07:04:09;;;;;;;;;;;;;;;1.34;100.00;97142.75;10485070;28;1910;-69
2022/01/23 07:09:13;;;;;;;;;;;;;;;1.39;100.00;97143.00;10479693;28;1930;-69
2022/01/23 07:14:16;;;;;;;;;;;;;;;1.38;100.00;97128.13;10479442;28;2058;-69
2022/01/23 07:19:20;;;;;;;;;;;;;;;1.35;100.00;97147.03;10463327;28;2013;-70
2022/01/23 07:24:24;;;;;;;;;;;;;;;1.32;100.00;97164.09;10467556;28;1919;-70
2022/01/23 07:29:27;;;;;;;;;;;;;;;1.37;100.00;97174.16;10468471;28;2030;-70
2022/01/23 07:34:31;;;;;;;;;;;;;;;1.39;100.00;97190.69;10470800;28;1895;-70
2022/01/23 07:39:34;;;;;;;;;;;;;;;1.47;100.00;97195.94;10470102;28;1970;-70
2022/01/23 07:44:38;;;;;;;;;;;;;;;1.41;100.00;97194.00;10466444;28;1971;-69
2022/01/23 07:49:41;;;;;;;;;;;;;;;1.51;100.00;97210.44;10464981;28;1944;-70
2022/01/23 07:54:45;;;;;;;;;;;;;;;1.51;100.00;97214.94;10478008;28;1969;-72
2022/01/23 07:59:48;;;;;;;;;;;;;;;1.59;100.00;97221.00;10473971;28;1956;-70
2022/01/23 08:04:52;;;;;;;;;;;;;;;1.69;100.00;97225.19;10474068;28;1942;-69
2022/01/23 08:09:56;;;;;;;;;;;;;;;1.73;100.00;97227.31;10463734;28;1982;-68
2022/01/23 08:15:00;;;;;;;;;;;;;;;1.74;100.00;97239.53;10471487;28;1876;-70
2022/01/23 08:20:06;;;;;;;;;;;;;;;1.70;100.00;97245.38;10480272;28;2199;-70
2022/01/23 08:25:10;;;;;;;;;;;;;;;1.78;100.00;97245.28;10477688;28;2036;-70
2022/01/23 08:30:14;;;;;;;;;;;;;;;1.76;100.00;97257.91;10464760;28;1841;-70
2022/01/23 08:35:17;;;;;;;;;;;;;;;1.72;100.00;97260.13;10465521;28;1876;-69
2022/01/23 08:40:35;;;;;;;;;;;;;;;1.74;100.00;97249.34;10466459;28;1994;-69
2022/01/23 08:45:38;;;;;;;;;;;;;;;2.03;100.00;97244.00;10468188;28;2000;-70
2022/01/23 08:50:42;;;;;;;;;;;;;;;2.25;100.00;97257.38;10469812;28;2037;-69
2022/01/23 08:55:45;;;;;;;;;;;;;;;2.50;100.00;97231.34;10465712;28;1939;-69
2022/01/23 09:00:49;;;;;;;;;;;;;;;2.63;100.00;97236.78;10463232;28;1958;-69
2022/01/23 09:05:53;;;;;;;;;;;;;;;2.66;100.00;97226.59;10460862;28;1977;-69
2022/01/23 09:10:58;;;;;;;;;;;;;;;2.80;100.00;97230.25;10468728;28;1911;-71
2022/01/23 09:16:02;;;;;;;;;;;;;;;2.97;100.00;97223.66;10455221;28;1977;-69
2022/01/23 09:21:06;;;;;;;;;;;;;;;3.28;100.00;97230.47;10471427;28;1917;-69
2022/01/23 09:26:14;;;;;;;;;;;;;;;3.19;100.00;97242.25;10484841;28;1990;-68
2022/01/23 09:31:27;;;;;;;;;;;;;;;3.59;100.00;97232.75;10456257;28;1989;-69
2022/01/23 09:36:30;;;;;;;;;;;4.40;99.90;;;3.53;100.00;97233.53;10463289;28;1931;-70
2022/01/23 09:41:33;;;;;;;;;;;4.20;99.90;;;3.61;100.00;97225.41;10461425;28;1914;-70
2022/01/23 09:46:36;;;;;;;;;;;4.20;99.90;;;3.45;100.00;97225.69;10466960;28;1975;-69
2022/01/23 09:51:39;;;;;;;;;;;4.40;99.90;;;3.46;100.00;97232.66;10464705;28;2034;-70
2022/01/23 09:56:43;;;;;;;;;;;4.40;99.90;;;3.47;99.49;97237.78;10462926;28;1916;-69
2022/01/23 10:01:53;;;;;;;;;;;4.30;99.90;;;3.61;100.00;97230.72;10469120;28;2018;-70
2022/01/23 10:06:57;;;;;;;;;;;4.30;99.90;;;3.67;100.00;97229.94;10463776;28;1951;-71
2022/01/23 10:11:59;;;;;;;;;;;4.50;99.90;;;3.78;99.86;97220.59;10463272;28;1929;-71
2022/01/23 10:17:03;;;;;;;;;;;4.50;99.90;;;3.66;100.00;97222.97;10466354;28;2088;-71
2022/01/23 10:22:06;;;;;;;;;;;4.50;99.90;;;4.01;99.49;97220.34;10460596;28;1914;-71
2022/01/23 10:27:08;;;;;;;;;;;4.60;99.90;;;3.89;98.02;97219.25;10467231;28;2011;-69
2022/01/23 10:32:12;;;;;;;;;;;4.70;99.90;;;3.89;98.94;97228.06;10472863;28;1971;-70
2022/01/23 10:37:15;;;;;;;;;;;4.70;99.90;;;3.83;98.13;97214.72;10473878;28;2043;-70
2022/01/23 10:42:24;;;;;;;;;;;4.60;99.90;;;3.84;100.00;97213.69;10475456;28;1982;-70
2022/01/23 10:47:33;;;;;;;;;;;4.60;99.90;;;3.92;100.00;97216.19;10475457;28;2100;-70
2022/01/23 10:52:37;;;;;;;;;;;;;;;4.16;95.71;97218.38;10465261;28;1981;-69
2022/01/23 10:57:40;;;;;;;;;;;4.90;99.90;;;3.91;94.14;97225.19;10482325;28;2007;-70
2022/01/23 11:02:43;;;;;;;;;;;5.00;99.90;;;3.91;98.69;97219.88;10476348;28;1981;-70
2022/01/23 11:07:46;;;;;;;;;;;5.00;99.90;;;4.07;95.29;97215.06;10472371;28;1931;-70
2022/01/23 11:18:18;;;;;;;;;;;5.00;99.90;;;3.69;98.48;97200.47;10472776;28;1935;-70
2022/01/23 11:23:23;;;;;;;;;;;;;;;3.77;97.73;97198.50;10467832;28;2070;-70
2022/01/23 11:28:26;;;;;;;;;;;4.80;99.90;;;4.05;98.19;97209.09;10475837;28;1919;-69
2022/01/23 11:33:30;;;;;;;;;;;;;;;3.89;96.56;97203.28;10470643;28;1891;-69
2022/01/23 11:38:34;;;;;;;;;;;;;;;3.66;96.88;97200.88;10466843;28;1903;-70
2022/01/23 11:54:19;;;;;;;;;;;;;;;3.32;93.74;97193.72;10468006;28;2038;-70
2022/01/23 11:59:30;;;;;;;;;;;;;;;3.33;95.29;97185.53;10467180;28;1873;-69
2022/01/23 12:04:34;;;;;;;;;;;;;;;3.71;98.49;97183.34;10465998;28;1977;-70
2022/01/23 12:09:38;;;;;;;;;;;;;;;3.75;99.51;97176.63;10466511;28;1847;-71
2022/01/23 12:20:03;;;;;;;;;;;;;;;3.87;99.30;97173.38;10462659;28;1957;-70
2022/01/23 12:25:07;;;;;;;;;;;;;;;3.97;98.28;97160.56;10469331;28;2013;-70
2022/01/23 12:30:10;;;;;;;;;;;;;;;3.99;97.28;97163.81;10469300;28;2049;-69
2022/01/23 12:35:15;;;;;;;;;;;;;;;3.99;92.52;97169.16;10467757;28;1943;-69
2022/01/23 12:40:19;;;;;;;;;;;;;;;3.94;92.76;97166.25;10460579;28;1958;-70
2022/01/23 12:45:22;;;;;;;;;;;;;;;3.63;93.66;97166.72;10468787;28;1978;-70
2022/01/23 12:50:26;;;;;;;;;;;;;;;3.96;92.42;97169.56;10482854;28;1987;-71
2022/01/23 12:55:30;;;;;;;;;;;;;;;3.98;90.20;97172.81;10467824;28;1959;-69
2022/01/23 13:00:33;;;;;;;;;;;;;;;4.12;93.00;97168.38;10465316;28;2105;-70
2022/01/23 13:05:37;;;;;;;;;;;;;;;3.88;88.34;97169.69;10471537;28;2006;-70
2022/01/23 13:11:10;;;;;;;;;;;;;;;4.18;88.72;97160.41;10452012;28;2010;-70
2022/01/23 13:16:31;;;;;;;;;;;;;;;4.16;89.13;97166.97;10468557;28;1920;-70
2022/01/23 13:32:19;;;;;;;;;;;;;;;3.27;96.85;97161.56;10466293;28;1864;-69
2022/01/23 13:37:23;;;;;;;;;;;;;;;3.42;93.91;97156.97;10466703;28;1904;-69
2022/01/23 13:53:21;;;;;;;;;;;;;;;3.40;94.71;97141.22;10462241;28;1970;-70
2022/01/23 13:58:37;;;;;;;;;;;;;;;3.69;95.33;97142.81;10464613;28;1949;-70
2022/01/23 14:03:40;;;;;;;;;;;;;;;3.54;94.55;97144.78;10463410;28;1994;-71
2022/01/23 14:08:44;;;;;;;;;;;;;;;3.35;97.27;97134.84;10471432;28;2021;-70
2022/01/23 14:13:47;;;;;;;;;;;;;;;3.30;96.10;97139.91;10477576;28;1888;-69
2022/01/23 14:18:51;;;;;;;;;;;;;;;3.11;98.55;97142.22;10474181;28;2059;-69
2022/01/23 14:23:57;;;;;;;;;;;;;;;3.04;98.77;97154.63;10476538;28;2029;-71
2022/01/23 14:29:00;;;;;;;;;;;;;;;3.36;97.21;97145.25;10469391;28;1959;-70
2022/01/23 14:34:05;;;;;;;;;;;;;;;3.14;97.94;97156.97;10475317;28;2001;-70
2022/01/23 14:39:09;;;;;;;;;;;;;;;3.21;96.56;97169.28;10474006;28;1880;-69
2022/01/23 14:44:13;;;;;;;;;;;;;;;3.04;100.00;97156.47;10479198;28;2031;-70
2022/01/23 14:49:22;;;;;;;;;;;;;;;2.85;100.00;97166.75;10471399;28;2037;-70
2022/01/23 14:54:26;;;;;;;;;;;;;;;2.93;100.00;97160.50;10473144;28;2169;-70
2022/01/23 14:59:29;;;;;;;;;;;;;;;2.87;100.00;97163.91;10472899;28;2080;-70
2022/01/23 15:04:33;;;;;;;;;;;;;;;2.77;100.00;97168.72;10478311;28;1982;-70
2022/01/23 15:09:36;;;;;;;;;;;;;;;2.64;100.00;97167.56;10470860;28;1882;-69
2022/01/23 15:14:39;;;;;;;;;;;;;;;2.51;100.00;97159.47;10466723;28;1942;-70
2022/01/23 15:19:43;;;;;;;;;;;;;;;2.59;100.00;97167.31;10466612;28;1991;-70
2022/01/23 15:24:51;;;;;;;;;;;;;;;2.46;100.00;97161.88;10479068;28;1979;-69
2022/01/23 15:29:55;;;;;;;;;;;;;;;2.42;100.00;97158.78;10485590;28;1957;-69
2022/01/23 15:34:58;;;;;;;;;;;;;;;2.66;100.00;97151.44;10479511;28;1931;-69
2022/01/23 15:40:02;;;;;;;;;;;;;;;2.72;100.00;97154.16;10477856;28;1880;-70
2022/01/23 15:45:05;;;;;;;;;;;;;;;2.66;100.00;97154.09;10473344;28;1976;-69
2022/01/23 15:50:09;;;;;;;;;;;;;;;2.57;100.00;97153.41;10478948;28;2063;-69
2022/01/23 15:55:16;;;;;;;;;;;;;;;2.53;100.00;97151.31;10474280;28;1899;-69
2022/01/23 16:00:19;;;;;;;;;;;;;;;2.34;100.00;97158.06;10484052;28;2541;-70
2022/01/23 16:05:23;;;;;;;;;;;;;;;2.31;100.00;97159.28;10493339;28;1895;-70
2022/01/23 16:10:26;;;;;;;;;;;;;;;2.10;100.00;97161.88;10492764;28;2045;-70
2022/01/23 16:15:30;;;;;;;;;;;;;;;2.00;100.00;97156.06;10482297;28;1987;-70
2022/01/23 16:20:36;;;;;;;;;;;;;;;2.03;100.00;97151.19;10463531;28;1965;-71
2022/01/23 16:25:39;;;;;;;;;;;;;;;2.08;100.00;97151.44;10462385;28;1977;-70
2022/01/23 16:30:43;;;;;;;;;;;;;;;2.00;100.00;97150.75;10470485;28;1453;-69
2022/01/23 16:35:46;;;;;;;;;;;;;;;2.09;100.00;97139.81;10481503;28;1777;-69
2022/01/23 16:40:50;;;;;;;;;;;;;;;2.21;100.00;97152.63;10469614;28;1934;-69
2022/01/23 16:45:54;;;;;;;;;;;;;;;2.14;100.00;97144.59;10469514;28;1965;-67
2022/01/23 16:50:57;;;;;;;;;;;;;;;2.07;100.00;97155.13;10458148;28;1844;-68
2022/01/23 16:56:01;;;;;;;;;;;;;;;2.00;100.00;97156.88;10473182;28;1851;-69
2022/01/23 17:01:05;;;;;;;;;;;;;;;2.09;100.00;97149.63;10469520;28;2142;-69
2022/01/23 17:06:09;;;;;;;;;;;;;;;2.02;100.00;97151.38;10467084;28;1922;-70
2022/01/23 17:11:13;;;;;;;;;;;;;;;1.98;100.00;97156.25;10471147;28;2036;-68
2022/01/23 17:16:16;;;;;;;;;;;;;;;1.94;100.00;97154.97;10471424;28;1865;-68
2022/01/23 17:21:19;;;;;;;;;;;;;;;1.84;100.00;97152.59;10464905;28;2137;-67
2022/01/23 17:26:26;;;;;;;;;;;;;;;1.90;100.00;97148.38;10471180;28;1980;-68
2022/01/23 17:31:29;;;;;;;;;;;;;;;1.88;100.00;97135.31;10463451;28;1868;-68
2022/01/23 17:36:33;;;;;;;;;;;;;;;1.87;100.00;97140.81;10474103;28;1523;-68
2022/01/23 17:41:36;;;;;;;;;;;;;;;1.89;100.00;97133.47;10470886;28;1741;-67
2022/01/23 17:46:41;;;;;;;;;;;;;;;1.81;100.00;97141.53;10471652;28;1987;-67
2022/01/23 17:51:45;;;;;;;;;;;;;;;1.64;100.00;97138.25;10471577;28;1880;-68
2022/01/23 17:56:49;;;;;;;;;;;;;;;1.37;100.00;97155.63;10465779;28;1777;-68
2022/01/23 18:01:54;;;;;;;;;;;;;;;1.07;100.00;97160.88;10473448;28;1780;-70
2022/01/23 18:07:04;;;;;;;;;;;;;;;1.06;100.00;97164.53;10464441;28;2040;-68
2022/01/23 18:12:07;;;;;;;;;;;;;;;0.98;100.00;97172.56;10467100;28;1737;-69
2022/01/23 18:17:11;;;;;;;;;;;;;;;0.98;100.00;97188.44;10471927;28;1894;-67
2022/01/23 18:22:15;;;;;;;;;;;;;;;0.83;100.00;97190.22;10469321;28;2207;-69
2022/01/23 18:27:19;;;;;;;;;;;;;;;0.72;100.00;97198.59;10471917;28;1966;-68
2022/01/23 18:32:22;;;;;;;;;;;;;;;0.63;100.00;97199.63;10466509;28;2209;-69
2022/01/23 18:37:31;;;;;;;;;;;;;;;0.56;100.00;97198.69;10465809;28;1952;-68
2022/01/23 18:42:35;;;;;;;;;;;;;;;0.65;100.00;97200.28;10466571;28;2197;-68
2022/01/23 18:47:38;;;;;;;;;;;;;;;0.51;100.00;97207.16;10464873;28;1861;-69
2022/01/23 18:52:52;;;;;;;;;;;;;;;0.37;100.00;97206.06;10474482;28;2184;-70
2022/01/23 18:58:04;;;;;;;;;;;;;;;0.33;100.00;97202.16;10481892;28;1852;-69
2022/01/23 19:03:20;;;;;;;;;;;;;;;0.29;100.00;97207.94;10477331;28;2306;-71
2022/01/23 19:08:23;;;;;;;;;;;;;;;0.18;100.00;97211.81;10476753;28;1866;-70
2022/01/23 19:13:29;;;;;;;;;;;;;;;0.11;100.00;97194.97;10482898;28;1483;-69
2022/01/23 19:18:33;;;;;;;;;;;;;;;0.03;100.00;97197.66;10486984;28;1908;-70
2022/01/23 19:23:38;;;;;;;;;;;;;;;-0.01;100.00;97197.19;10489698;28;1950;-68
2022/01/23 19:28:43;;;;;;;;;;;;;;;-0.13;100.00;97202.00;10489896;28;1855;-70
2022/01/23 19:33:47;;;;;;;;;;;;;;;-0.12;100.00;97211.63;10480339;28;1808;-69
2022/01/23 19:38:50;;;;;;;;;;;;;;;-0.11;100.00;97212.44;10485369;28;1887;-69
2022/01/23 19:43:59;;;;;;;;;;;;;;;-0.15;100.00;97205.84;10482574;28;1976;-69
2022/01/23 19:49:06;;;;;;;;;;;;;;;-0.18;100.00;97212.31;10477085;28;1836;-70
2022/01/23 19:54:11;;;;;;;;;;;;;;;-0.25;100.00;97208.69;10476337;28;1938;-69
2022/01/23 19:59:15;;;;;;;;;;;;;;;-0.28;100.00;97206.38;10476783;28;1827;-68
2022/01/23 20:04:18;;;;;;;;;;;;;;;-0.22;100.00;97200.41;10477828;28;1914;-68
2022/01/23 20:09:22;;;;;;;;;;;;;;;-0.23;100.00;97204.06;10472877;28;1851;-70
2022/01/23 20:14:25;;;;;;;;;;;;;;;-0.27;100.00;97197.44;10470839;28;1867;-69
2022/01/23 20:19:28;;;;;;;;;;;;;;;-0.09;100.00;97210.44;10469686;28;1850;-69
2022/01/23 20:24:32;;;;;;;;;;;;;;;-0.23;100.00;97209.34;10463497;28;2008;-69
2022/01/23 20:29:36;;;;;;;;;;;;;;;-0.18;100.00;97201.72;10464645;28;1796;-68
2022/01/23 20:34:39;;;;;;;;;;;;;;;-0.27;100.00;97203.56;10464709;28;1816;-70
2022/01/23 20:39:43;;;;;;;;;;;;;;;-0.28;100.00;97201.09;10464833;28;1836;-69
2022/01/23 20:44:50;;;;;;;;;;;;;;;-0.25;100.00;97203.41;10467917;28;1981;-70
2022/01/23 20:49:56;;;;;;;;;;;;;;;-0.24;100.00;97207.69;10470079;28;1847;-70
2022/01/23 20:55:00;;;;;;;;;;;;;;;-0.27;100.00;97208.03;10470884;28;2004;-69
2022/01/23 21:00:03;;;;;;;;;;;;;;;-0.22;100.00;97216.28;10462412;28;1856;-68
2022/01/23 21:05:07;;;;;;;;;;;;;;;-0.31;100.00;97212.03;10464413;28;1902;-70
2022/01/23 21:10:10;;;;;;;;;;;;;;;-0.35;100.00;97215.97;10459935;28;1894;-69
2022/01/23 21:15:38;;;;;;;;;;;;;;;-0.34;100.00;97214.97;10468869;28;1931;-69
2022/01/23 21:20:48;;;;;;;;;;;;;;;-0.33;100.00;97213.97;10469138;28;1859;-68
2022/01/23 21:42:00;;;;;;;;;;;;;;;-0.51;100.00;97226.56;10467492;28;1810;-68
2022/01/23 21:47:04;;;;;;;;;;;;;;;-0.55;100.00;97224.28;10464478;28;1990;-67
2022/01/23 21:52:07;;;;;;;;;;;;;;;-0.52;100.00;97223.13;10467584;28;1760;-69
2022/01/23 21:57:17;;;;;;;;;;;;;;;-0.48;100.00;97216.50;10464478;28;1769;-69
2022/01/23 22:02:20;;;;;;;;;;;;;;;-0.47;100.00;97214.69;10462796;28;1856;-69
2022/01/23 22:07:42;;;;;;;;;;;;;;;-0.52;100.00;97209.09;10461150;28;1915;-69
2022/01/23 22:13:09;;;;;;;;;;;;;;;-0.55;100.00;97205.81;10460721;28;1745;-70
2022/01/23 22:18:13;;;;;;;;;;;;;;;-0.53;100.00;97202.16;10462799;28;1773;-68
2022/01/23 22:23:20;;;;;;;;;;;;;;;-0.56;100.00;97200.69;10464010;28;2345;-69
2022/01/23 22:28:24;;;;;;;;;;;;;;;-0.55;100.00;97199.69;10470361;28;1897;-71
2022/01/23 22:33:28;;;;;;;;;;;;;;;-0.62;100.00;97196.91;10474352;28;1819;-68
2022/01/23 22:38:32;;;;;;;;;;;;;;;-0.60;100.00;97202.00;10471963;28;1831;-69
2022/01/23 22:43:44;;;;;;;;;;;;;;;-0.59;100.00;97199.19;10481853;28;1914;-68
2022/01/23 22:48:47;;;;;;;;;;;;;;;-0.55;100.00;97208.44;10473269;28;1921;-69
2022/01/23 22:53:52;;;;;;;;;;;;;;;-0.60;100.00;97209.94;10473536;28;1821;-68
2022/01/23 22:58:56;;;;;;;;;;;;;;;-0.62;100.00;97212.75;10473167;28;2050;-69
2022/01/23 23:03:59;;;;;;;;;;;;;;;-0.66;100.00;97216.72;10472055;28;1910;-69
2022/01/23 23:09:02;;;;;;;;;;;;;;;-0.68;100.00;97209.97;10468144;28;1924;-68
2022/01/23 23:14:06;;;;;;;;;;;;;;;-0.58;100.00;97210.59;10472206;28;1892;-69
2022/01/23 23:19:10;;;;;;;;;;;;;;;-0.65;100.00;97210.44;10466156;28;1825;-68
2022/01/23 23:24:13;;;;;;;;;;;;;;;-0.60;100.00;97213.41;10465028;28;1902;-68
2022/01/23 23:29:17;;;;;;;;;;;;;;;-0.62;100.00;97196.91;10469236;28;1824;-68
2022/01/23 23:34:20;;;;;;;;;;;;;;;-0.60;100.00;97200.19;10475424;28;1784;-68
2022/01/23 23:39:35;;;;;;;;;;;;;;;-0.58;100.00;97210.59;10466844;28;1898;-68
2022/01/23 23:44:42;;;;;;;;;;;;;;;-0.61;100.00;97190.63;10472783;28;1980;-69
2022/01/23 23:49:47;;;;;;;;;;;;;;;-0.68;100.00;97188.84;10477650;28;1808;-69
2022/01/23 23:54:50;;;;;;;;;;;;;;;-0.72;100.00;97187.50;10489342;28;2227;-68
2022/01/23 23:59:54;;;;;;;;;;;;;;;-0.79;100.00;97186.53;10474441;28;1878;-68
